sensor_id;sensor_type;location;lat;lon;timestamp;temperature;humidity
40758;DHT22;26462;47.384;19.218;2023-04-25T00:01:03;12.20;99.90
40758;DHT22;26462;47.384;19.218;2023-04-25T00:03:32;12.20;99.90
40758;DHT22;26462;47.384;19.218;2023-04-25T00:05:59;12.20;99.90
40758;DHT22;26462;47.384;19.218;2023-04-25T00:08:29;12.20;99.90
40758;DHT22;26462;47.384;19.218;2023-04-25T00:10:57;12.20;99.90
40758;DHT22;26462;47.384;19.218;2023-04-25T00:13:25;12.10;99.90
40758;DHT22;26462;47.384;19.218;2023-04-25T00:15:53;12.10;99.90
40758;DHT22;26462;47.384;19.218;2023-04-25T00:18:20;12.20;99.90
40758;DHT22;26462;47.384;19.218;2023-04-25T00:20:47;12.20;99.90
40758;DHT22;26462;47.384;19.218;2023-04-25T00:23:17;12.20;99.90
40758;DHT22;26462;47.384;19.218;2023-04-25T00:25:45;12.20;99.90
40758;DHT22;26462;47.384;19.218;2023-04-25T00:28:13;12.20;99.90
40758;DHT22;26462;47.384;19.218;2023-04-25T00:30:40;12.20;99.90
40758;DHT22;26462;47.384;19.218;2023-04-25T00:33:08;12.20;99.90
40758;DHT22;26462;47.384;19.218;2023-04-25T00:35:36;12.10;99.90
40758;DHT22;26462;47.384;19.218;2023-04-25T00:38:03;12.10;99.90
40758;DHT22;26462;47.384;19.218;2023-04-25T00:40:30;12.10;99.90
40758;DHT22;26462;47.384;19.218;2023-04-25T00:42:57;12.10;99.90
40758;DHT22;26462;47.384;19.218;2023-04-25T00:45:28;12.10;99.90
40758;DHT22;26462;47.384;19.218;2023-04-25T00:47:57;12.10;99.90
40758;DHT22;26462;47.384;19.218;2023-04-25T00:50:24;12.00;99.90
40758;DHT22;26462;47.384;19.218;2023-04-25T00:52:52;12.10;99.90
40758;DHT22;26462;47.384;19.218;2023-04-25T00:55:19;12.10;99.90
40758;DHT22;26462;47.384;19.218;2023-04-25T00:57:46;12.10;99.90
40758;DHT22;26462;47.384;19.218;2023-04-25T01:00:14;12.00;99.90
40758;DHT22;26462;47.384;19.218;2023-04-25T01:02:43;12.10;99.90
40758;DHT22;26462;47.384;19.218;2023-04-25T01:05:11;12.10;99.90
40758;DHT22;26462;47.384;19.218;2023-04-25T01:07:40;12.10;99.90
40758;DHT22;26462;47.384;19.218;2023-04-25T01:10:08;12.10;99.90
40758;DHT22;26462;47.384;19.218;2023-04-25T01:12:37;12.10;99.90
40758;DHT22;26462;47.384;19.218;2023-04-25T01:15:04;12.10;99.90
40758;DHT22;26462;47.384;19.218;2023-04-25T01:17:33;12.10;99.90
40758;DHT22;26462;47.384;19.218;2023-04-25T01:20:04;12.10;99.90
40758;DHT22;26462;47.384;19.218;2023-04-25T01:22:32;12.10;99.90
40758;DHT22;26462;47.384;19.218;2023-04-25T01:25:00;12.10;99.90
40758;DHT22;26462;47.384;19.218;2023-04-25T01:27:27;12.10;99.90
40758;DHT22;26462;47.384;19.218;2023-04-25T01:29:55;12.00;99.90
40758;DHT22;26462;47.384;19.218;2023-04-25T01:32:23;12.00;99.90
40758;DHT22;26462;47.384;19.218;2023-04-25T01:34:51;12.00;99.90
40758;DHT22;26462;47.384;19.218;2023-04-25T01:37:19;12.00;99.90
40758;DHT22;26462;47.384;19.218;2023-04-25T01:39:46;12.00;99.90
40758;DHT22;26462;47.384;19.218;2023-04-25T01:42:14;12.10;99.90
40758;DHT22;26462;47.384;19.218;2023-04-25T01:44:41;12.00;99.90
40758;DHT22;26462;47.384;19.218;2023-04-25T01:47:08;12.00;99.90
40758;DHT22;26462;47.384;19.218;2023-04-25T01:49:35;12.00;99.90
40758;DHT22;26462;47.384;19.218;2023-04-25T01:52:02;12.00;99.90
40758;DHT22;26462;47.384;19.218;2023-04-25T01:54:30;12.00;99.90
40758;DHT22;26462;47.384;19.218;2023-04-25T01:56:57;12.00;99.90
40758;DHT22;26462;47.384;19.218;2023-04-25T01:59:24;12.00;99.90
40758;DHT22;26462;47.384;19.218;2023-04-25T02:02:03;12.00;99.90
40758;DHT22;26462;47.384;19.218;2023-04-25T02:04:32;12.00;99.90
40758;DHT22;26462;47.384;19.218;2023-04-25T02:07:00;12.00;99.90
40758;DHT22;26462;47.384;19.218;2023-04-25T02:09:36;12.00;99.90
40758;DHT22;26462;47.384;19.218;2023-04-25T02:12:07;11.90;99.90
40758;DHT22;26462;47.384;19.218;2023-04-25T02:14:52;12.00;99.90
40758;DHT22;26462;47.384;19.218;2023-04-25T02:17:45;12.00;99.90
40758;DHT22;26462;47.384;19.218;2023-04-25T02:20:12;11.90;99.90
40758;DHT22;26462;47.384;19.218;2023-04-25T02:22:39;11.90;99.90
40758;DHT22;26462;47.384;19.218;2023-04-25T02:25:07;11.90;99.90
40758;DHT22;26462;47.384;19.218;2023-04-25T02:27:35;11.90;99.90
40758;DHT22;26462;47.384;19.218;2023-04-25T02:30:03;11.80;99.90
40758;DHT22;26462;47.384;19.218;2023-04-25T02:32:33;11.80;99.90
40758;DHT22;26462;47.384;19.218;2023-04-25T02:35:02;11.80;99.90
40758;DHT22;26462;47.384;19.218;2023-04-25T02:37:31;11.80;99.90
40758;DHT22;26462;47.384;19.218;2023-04-25T02:39:59;11.80;99.90
40758;DHT22;26462;47.384;19.218;2023-04-25T02:42:26;11.80;99.90
40758;DHT22;26462;47.384;19.218;2023-04-25T02:44:53;11.80;99.90
40758;DHT22;26462;47.384;19.218;2023-04-25T02:47:21;11.80;99.90
40758;DHT22;26462;47.384;19.218;2023-04-25T02:49:49;11.80;99.90
40758;DHT22;26462;47.384;19.218;2023-04-25T02:52:16;11.80;99.90
40758;DHT22;26462;47.384;19.218;2023-04-25T02:54:48;11.80;99.90
40758;DHT22;26462;47.384;19.218;2023-04-25T02:57:15;11.80;99.90
40758;DHT22;26462;47.384;19.218;2023-04-25T02:59:42;11.80;99.90
40758;DHT22;26462;47.384;19.218;2023-04-25T03:02:09;11.80;99.90
40758;DHT22;26462;47.384;19.218;2023-04-25T03:04:37;11.80;99.90
40758;DHT22;26462;47.384;19.218;2023-04-25T03:07:05;11.80;99.90
40758;DHT22;26462;47.384;19.218;2023-04-25T03:09:32;11.70;99.90
40758;DHT22;26462;47.384;19.218;2023-04-25T03:11:59;11.80;99.90
40758;DHT22;26462;47.384;19.218;2023-04-25T03:14:27;11.80;99.90
40758;DHT22;26462;47.384;19.218;2023-04-25T03:16:54;11.70;99.90
40758;DHT22;26462;47.384;19.218;2023-04-25T03:19:21;11.80;99.90
40758;DHT22;26462;47.384;19.218;2023-04-25T03:21:48;11.80;99.90
40758;DHT22;26462;47.384;19.218;2023-04-25T03:24:16;11.80;99.90
40758;DHT22;26462;47.384;19.218;2023-04-25T03:26:43;11.80;99.90
40758;DHT22;26462;47.384;19.218;2023-04-25T03:29:10;11.80;99.90
40758;DHT22;26462;47.384;19.218;2023-04-25T03:31:38;11.80;99.90
40758;DHT22;26462;47.384;19.218;2023-04-25T03:34:05;11.70;99.90
40758;DHT22;26462;47.384;19.218;2023-04-25T03:36:32;11.70;99.90
40758;DHT22;26462;47.384;19.218;2023-04-25T03:39:00;11.70;99.90
40758;DHT22;26462;47.384;19.218;2023-04-25T03:41:29;11.60;99.90
40758;DHT22;26462;47.384;19.218;2023-04-25T03:44:02;11.60;99.90
40758;DHT22;26462;47.384;19.218;2023-04-25T03:46:29;11.60;99.90
40758;DHT22;26462;47.384;19.218;2023-04-25T03:48:56;11.70;99.90
40758;DHT22;26462;47.384;19.218;2023-04-25T03:51:31;11.60;99.90
40758;DHT22;26462;47.384;19.218;2023-04-25T03:53:58;11.60;99.90
40758;DHT22;26462;47.384;19.218;2023-04-25T03:56:48;11.60;99.90
40758;DHT22;26462;47.384;19.218;2023-04-25T03:59:18;11.60;99.90
40758;DHT22;26462;47.384;19.218;2023-04-25T04:01:46;11.50;99.90
40758;DHT22;26462;47.384;19.218;2023-04-25T04:04:13;11.50;99.90
40758;DHT22;26462;47.384;19.218;2023-04-25T04:06:41;11.50;99.90
40758;DHT22;26462;47.384;19.218;2023-04-25T04:09:15;11.50;99.90
40758;DHT22;26462;47.384;19.218;2023-04-25T04:11:43;11.50;99.90
40758;DHT22;26462;47.384;19.218;2023-04-25T04:14:10;11.50;99.90
40758;DHT22;26462;47.384;19.218;2023-04-25T04:16:41;11.50;99.90
40758;DHT22;26462;47.384;19.218;2023-04-25T04:19:09;11.50;99.90
40758;DHT22;26462;47.384;19.218;2023-04-25T04:21:37;11.50;99.90
40758;DHT22;26462;47.384;19.218;2023-04-25T04:24:04;11.50;99.90
40758;DHT22;26462;47.384;19.218;2023-04-25T04:26:44;11.50;99.90
40758;DHT22;26462;47.384;19.218;2023-04-25T04:29:36;11.50;99.90
40758;DHT22;26462;47.384;19.218;2023-04-25T04:32:13;11.40;99.90
40758;DHT22;26462;47.384;19.218;2023-04-25T04:34:41;11.40;99.90
40758;DHT22;26462;47.384;19.218;2023-04-25T04:37:09;11.40;99.90
40758;DHT22;26462;47.384;19.218;2023-04-25T04:39:37;11.40;99.90
40758;DHT22;26462;47.384;19.218;2023-04-25T04:42:16;11.30;99.90
40758;DHT22;26462;47.384;19.218;2023-04-25T04:45:11;11.30;99.90
40758;DHT22;26462;47.384;19.218;2023-04-25T04:47:45;11.20;99.90
40758;DHT22;26462;47.384;19.218;2023-04-25T04:50:24;11.10;99.90
40758;DHT22;26462;47.384;19.218;2023-04-25T04:53:19;11.10;99.90
40758;DHT22;26462;47.384;19.218;2023-04-25T04:56:05;11.10;99.90
40758;DHT22;26462;47.384;19.218;2023-04-25T04:58:47;11.10;99.90
40758;DHT22;26462;47.384;19.218;2023-04-25T05:01:34;11.10;99.90
40758;DHT22;26462;47.384;19.218;2023-04-25T05:04:42;11.00;99.90
40758;DHT22;26462;47.384;19.218;2023-04-25T05:07:29;11.00;99.90
40758;DHT22;26462;47.384;19.218;2023-04-25T05:10:08;11.00;99.90
40758;DHT22;26462;47.384;19.218;2023-04-25T05:12:41;11.00;99.90
40758;DHT22;26462;47.384;19.218;2023-04-25T05:15:27;11.00;99.90
40758;DHT22;26462;47.384;19.218;2023-04-25T05:18:11;10.90;99.90
40758;DHT22;26462;47.384;19.218;2023-04-25T05:20:38;10.90;99.90
40758;DHT22;26462;47.384;19.218;2023-04-25T05:23:23;10.90;99.90
40758;DHT22;26462;47.384;19.218;2023-04-25T05:26:06;10.80;99.90
40758;DHT22;26462;47.384;19.218;2023-04-25T05:29:00;10.80;99.90
40758;DHT22;26462;47.384;19.218;2023-04-25T05:31:46;10.70;99.90
40758;DHT22;26462;47.384;19.218;2023-04-25T05:34:15;10.80;99.90
40758;DHT22;26462;47.384;19.218;2023-04-25T05:36:53;10.80;99.90
40758;DHT22;26462;47.384;19.218;2023-04-25T05:39:20;10.70;99.90
40758;DHT22;26462;47.384;19.218;2023-04-25T05:42:22;10.70;99.90
40758;DHT22;26462;47.384;19.218;2023-04-25T05:44:52;10.70;99.90
40758;DHT22;26462;47.384;19.218;2023-04-25T05:47:55;10.60;99.90
40758;DHT22;26462;47.384;19.218;2023-04-25T05:50:57;10.60;99.90
40758;DHT22;26462;47.384;19.218;2023-04-25T05:53:54;10.50;99.90
40758;DHT22;26462;47.384;19.218;2023-04-25T05:56:21;10.50;99.90
40758;DHT22;26462;47.384;19.218;2023-04-25T05:58:51;10.50;99.90
40758;DHT22;26462;47.384;19.218;2023-04-25T06:01:19;10.40;99.90
40758;DHT22;26462;47.384;19.218;2023-04-25T06:03:46;10.40;99.90
40758;DHT22;26462;47.384;19.218;2023-04-25T06:06:13;10.30;99.90
40758;DHT22;26462;47.384;19.218;2023-04-25T06:08:41;10.20;99.90
40758;DHT22;26462;47.384;19.218;2023-04-25T06:11:10;10.20;99.90
40758;DHT22;26462;47.384;19.218;2023-04-25T06:13:38;10.10;99.90
40758;DHT22;26462;47.384;19.218;2023-04-25T06:16:06;10.20;99.90
40758;DHT22;26462;47.384;19.218;2023-04-25T06:18:33;10.20;99.90
40758;DHT22;26462;47.384;19.218;2023-04-25T06:21:00;10.10;99.90
40758;DHT22;26462;47.384;19.218;2023-04-25T06:23:27;10.20;99.90
40758;DHT22;26462;47.384;19.218;2023-04-25T06:26:06;10.20;99.90
40758;DHT22;26462;47.384;19.218;2023-04-25T06:28:36;10.30;99.90
40758;DHT22;26462;47.384;19.218;2023-04-25T06:31:04;10.30;99.90
40758;DHT22;26462;47.384;19.218;2023-04-25T06:33:31;10.30;99.90
40758;DHT22;26462;47.384;19.218;2023-04-25T06:35:58;10.40;99.90
40758;DHT22;26462;47.384;19.218;2023-04-25T06:38:28;10.40;99.90
40758;DHT22;26462;47.384;19.218;2023-04-25T06:40:56;10.60;99.90
40758;DHT22;26462;47.384;19.218;2023-04-25T06:43:26;10.60;99.90
40758;DHT22;26462;47.384;19.218;2023-04-25T06:45:56;10.60;99.90
40758;DHT22;26462;47.384;19.218;2023-04-25T06:48:27;10.60;99.90
40758;DHT22;26462;47.384;19.218;2023-04-25T06:50:54;10.70;99.90
40758;DHT22;26462;47.384;19.218;2023-04-25T06:53:22;10.90;99.90
40758;DHT22;26462;47.384;19.218;2023-04-25T06:55:55;10.90;99.90
40758;DHT22;26462;47.384;19.218;2023-04-25T06:58:24;10.90;99.90
40758;DHT22;26462;47.384;19.218;2023-04-25T07:01:07;10.80;99.90
40758;DHT22;26462;47.384;19.218;2023-04-25T07:03:34;10.90;99.90
40758;DHT22;26462;47.384;19.218;2023-04-25T07:06:06;11.00;99.90
40758;DHT22;26462;47.384;19.218;2023-04-25T07:08:33;11.00;99.90
40758;DHT22;26462;47.384;19.218;2023-04-25T07:11:01;11.00;99.90
40758;DHT22;26462;47.384;19.218;2023-04-25T07:13:28;11.10;99.90
40758;DHT22;26462;47.384;19.218;2023-04-25T07:15:55;11.10;99.90
40758;DHT22;26462;47.384;19.218;2023-04-25T07:18:24;11.20;99.90
40758;DHT22;26462;47.384;19.218;2023-04-25T07:20:51;11.20;99.90
40758;DHT22;26462;47.384;19.218;2023-04-25T07:23:18;11.30;99.90
40758;DHT22;26462;47.384;19.218;2023-04-25T07:25:46;11.40;99.90
40758;DHT22;26462;47.384;19.218;2023-04-25T07:28:19;11.50;99.90
40758;DHT22;26462;47.384;19.218;2023-04-25T07:30:47;11.50;99.90
40758;DHT22;26462;47.384;19.218;2023-04-25T07:33:14;11.50;99.90
40758;DHT22;26462;47.384;19.218;2023-04-25T07:35:41;11.50;99.90
40758;DHT22;26462;47.384;19.218;2023-04-25T07:38:09;11.50;99.90
40758;DHT22;26462;47.384;19.218;2023-04-25T07:40:37;11.60;99.90
40758;DHT22;26462;47.384;19.218;2023-04-25T07:43:07;11.60;99.90
40758;DHT22;26462;47.384;19.218;2023-04-25T07:45:45;11.70;99.90
40758;DHT22;26462;47.384;19.218;2023-04-25T07:48:17;11.60;99.90
40758;DHT22;26462;47.384;19.218;2023-04-25T07:50:46;11.60;99.90
40758;DHT22;26462;47.384;19.218;2023-04-25T07:53:14;11.50;99.90
40758;DHT22;26462;47.384;19.218;2023-04-25T07:55:50;11.50;99.90
40758;DHT22;26462;47.384;19.218;2023-04-25T07:58:19;11.50;99.90
40758;DHT22;26462;47.384;19.218;2023-04-25T08:00:53;11.70;99.90
40758;DHT22;26462;47.384;19.218;2023-04-25T08:03:40;11.70;99.90
40758;DHT22;26462;47.384;19.218;2023-04-25T08:06:19;11.90;99.90
40758;DHT22;26462;47.384;19.218;2023-04-25T08:08:58;12.10;99.90
40758;DHT22;26462;47.384;19.218;2023-04-25T08:11:33;12.20;99.90
40758;DHT22;26462;47.384;19.218;2023-04-25T08:14:00;12.20;99.90
40758;DHT22;26462;47.384;19.218;2023-04-25T08:16:27;12.40;99.90
40758;DHT22;26462;47.384;19.218;2023-04-25T08:18:56;12.70;99.90
40758;DHT22;26462;47.384;19.218;2023-04-25T08:21:23;12.90;99.90
40758;DHT22;26462;47.384;19.218;2023-04-25T08:23:52;13.00;99.90
40758;DHT22;26462;47.384;19.218;2023-04-25T08:26:32;13.20;99.90
40758;DHT22;26462;47.384;19.218;2023-04-25T08:29:01;13.00;99.90
40758;DHT22;26462;47.384;19.218;2023-04-25T08:31:28;13.20;99.90
40758;DHT22;26462;47.384;19.218;2023-04-25T08:33:59;13.00;99.90
40758;DHT22;26462;47.384;19.218;2023-04-25T08:36:52;13.00;99.90
40758;DHT22;26462;47.384;19.218;2023-04-25T08:39:29;13.10;99.40
40758;DHT22;26462;47.384;19.218;2023-04-25T08:42:17;13.30;99.90
40758;DHT22;26462;47.384;19.218;2023-04-25T08:44:45;13.50;99.90
40758;DHT22;26462;47.384;19.218;2023-04-25T08:47:15;13.90;99.10
40758;DHT22;26462;47.384;19.218;2023-04-25T08:49:47;13.70;97.70
40758;DHT22;26462;47.384;19.218;2023-04-25T08:52:22;13.50;97.20
40758;DHT22;26462;47.384;19.218;2023-04-25T08:54:51;13.40;98.20
40758;DHT22;26462;47.384;19.218;2023-04-25T08:57:21;13.60;98.40
40758;DHT22;26462;47.384;19.218;2023-04-25T08:59:50;13.60;96.50
40758;DHT22;26462;47.384;19.218;2023-04-25T09:02:18;13.70;96.70
40758;DHT22;26462;47.384;19.218;2023-04-25T09:04:50;13.20;95.50
40758;DHT22;26462;47.384;19.218;2023-04-25T09:07:17;13.60;96.70
40758;DHT22;26462;47.384;19.218;2023-04-25T09:09:48;13.90;96.70
40758;DHT22;26462;47.384;19.218;2023-04-25T09:12:19;14.30;96.40
40758;DHT22;26462;47.384;19.218;2023-04-25T09:15:09;14.10;95.50
40758;DHT22;26462;47.384;19.218;2023-04-25T09:17:55;14.20;96.00
40758;DHT22;26462;47.384;19.218;2023-04-25T09:20:25;14.20;94.40
40758;DHT22;26462;47.384;19.218;2023-04-25T09:23:03;14.00;93.90
40758;DHT22;26462;47.384;19.218;2023-04-25T09:25:35;14.20;94.50
40758;DHT22;26462;47.384;19.218;2023-04-25T09:28:07;14.00;94.10
40758;DHT22;26462;47.384;19.218;2023-04-25T09:30:35;13.90;94.70
40758;DHT22;26462;47.384;19.218;2023-04-25T09:33:10;14.30;94.60
40758;DHT22;26462;47.384;19.218;2023-04-25T09:35:43;14.40;94.10
40758;DHT22;26462;47.384;19.218;2023-04-25T09:38:18;14.60;93.70
40758;DHT22;26462;47.384;19.218;2023-04-25T09:40:56;14.30;93.30
40758;DHT22;26462;47.384;19.218;2023-04-25T09:43:45;14.10;93.10
40758;DHT22;26462;47.384;19.218;2023-04-25T09:46:15;14.30;93.00
40758;DHT22;26462;47.384;19.218;2023-04-25T09:48:50;14.60;92.20
40758;DHT22;26462;47.384;19.218;2023-04-25T09:51:26;14.60;92.30
40758;DHT22;26462;47.384;19.218;2023-04-25T09:53:56;14.80;92.20
40758;DHT22;26462;47.384;19.218;2023-04-25T09:56:36;14.70;91.30
40758;DHT22;26462;47.384;19.218;2023-04-25T09:59:07;14.40;91.40
40758;DHT22;26462;47.384;19.218;2023-04-25T10:01:39;14.30;91.80
40758;DHT22;26462;47.384;19.218;2023-04-25T10:04:25;14.40;92.30
40758;DHT22;26462;47.384;19.218;2023-04-25T10:07:11;14.60;91.90
40758;DHT22;26462;47.384;19.218;2023-04-25T10:09:39;14.50;91.70
40758;DHT22;26462;47.384;19.218;2023-04-25T10:12:07;14.30;91.00
40758;DHT22;26462;47.384;19.218;2023-04-25T10:14:35;14.30;90.80
40758;DHT22;26462;47.384;19.218;2023-04-25T10:17:03;14.40;90.30
40758;DHT22;26462;47.384;19.218;2023-04-25T10:19:30;14.40;90.10
40758;DHT22;26462;47.384;19.218;2023-04-25T10:22:02;14.40;90.70
40758;DHT22;26462;47.384;19.218;2023-04-25T10:24:30;14.50;90.30
40758;DHT22;26462;47.384;19.218;2023-04-25T10:26:58;14.20;90.30
40758;DHT22;26462;47.384;19.218;2023-04-25T10:29:26;14.30;89.30
40758;DHT22;26462;47.384;19.218;2023-04-25T10:31:54;14.40;86.00
40758;DHT22;26462;47.384;19.218;2023-04-25T10:34:41;14.40;87.40
40758;DHT22;26462;47.384;19.218;2023-04-25T10:37:09;14.40;86.40
40758;DHT22;26462;47.384;19.218;2023-04-25T10:39:40;14.30;86.70
40758;DHT22;26462;47.384;19.218;2023-04-25T10:42:08;14.30;88.30
40758;DHT22;26462;47.384;19.218;2023-04-25T10:44:37;14.30;89.50
40758;DHT22;26462;47.384;19.218;2023-04-25T10:47:07;14.30;89.00
40758;DHT22;26462;47.384;19.218;2023-04-25T10:49:41;14.30;88.40
40758;DHT22;26462;47.384;19.218;2023-04-25T10:52:19;14.40;88.40
40758;DHT22;26462;47.384;19.218;2023-04-25T10:54:56;14.50;88.20
40758;DHT22;26462;47.384;19.218;2023-04-25T10:57:44;14.50;86.20
40758;DHT22;26462;47.384;19.218;2023-04-25T11:00:17;14.40;86.30
40758;DHT22;26462;47.384;19.218;2023-04-25T11:02:47;14.40;85.60
40758;DHT22;26462;47.384;19.218;2023-04-25T11:05:34;14.40;85.60
40758;DHT22;26462;47.384;19.218;2023-04-25T11:08:13;14.50;85.30
40758;DHT22;26462;47.384;19.218;2023-04-25T11:10:45;14.50;84.60
40758;DHT22;26462;47.384;19.218;2023-04-25T11:13:12;14.60;84.40
40758;DHT22;26462;47.384;19.218;2023-04-25T11:15:39;14.70;83.40
40758;DHT22;26462;47.384;19.218;2023-04-25T11:18:06;14.90;82.40
40758;DHT22;26462;47.384;19.218;2023-04-25T11:20:35;15.10;83.10
40758;DHT22;26462;47.384;19.218;2023-04-25T11:23:03;15.00;82.20
40758;DHT22;26462;47.384;19.218;2023-04-25T11:25:31;15.10;82.40
40758;DHT22;26462;47.384;19.218;2023-04-25T11:28:00;15.20;82.00
40758;DHT22;26462;47.384;19.218;2023-04-25T11:30:29;15.30;82.90
40758;DHT22;26462;47.384;19.218;2023-04-25T11:32:59;15.10;82.40
40758;DHT22;26462;47.384;19.218;2023-04-25T11:35:27;15.10;82.90
40758;DHT22;26462;47.384;19.218;2023-04-25T11:37:54;15.30;81.90
40758;DHT22;26462;47.384;19.218;2023-04-25T11:40:21;15.10;80.60
40758;DHT22;26462;47.384;19.218;2023-04-25T11:42:48;15.00;79.00
40758;DHT22;26462;47.384;19.218;2023-04-25T11:45:15;15.40;79.10
40758;DHT22;26462;47.384;19.218;2023-04-25T11:47:43;15.50;77.50
40758;DHT22;26462;47.384;19.218;2023-04-25T11:50:10;15.00;76.70
40758;DHT22;26462;47.384;19.218;2023-04-25T11:52:39;15.10;78.80
40758;DHT22;26462;47.384;19.218;2023-04-25T11:55:16;15.00;78.90
40758;DHT22;26462;47.384;19.218;2023-04-25T11:57:45;15.00;79.20
40758;DHT22;26462;47.384;19.218;2023-04-25T12:00:16;14.90;79.10
40758;DHT22;26462;47.384;19.218;2023-04-25T12:02:52;15.00;79.40
40758;DHT22;26462;47.384;19.218;2023-04-25T12:05:23;14.90;78.80
40758;DHT22;26462;47.384;19.218;2023-04-25T12:07:53;15.10;79.00
40758;DHT22;26462;47.384;19.218;2023-04-25T12:10:21;15.20;78.90
40758;DHT22;26462;47.384;19.218;2023-04-25T12:12:48;15.10;77.70
40758;DHT22;26462;47.384;19.218;2023-04-25T12:15:23;15.10;77.50
40758;DHT22;26462;47.384;19.218;2023-04-25T12:17:52;15.20;78.20
40758;DHT22;26462;47.384;19.218;2023-04-25T12:20:21;15.00;76.30
40758;DHT22;26462;47.384;19.218;2023-04-25T12:22:50;14.90;76.90
40758;DHT22;26462;47.384;19.218;2023-04-25T12:25:39;15.20;77.50
40758;DHT22;26462;47.384;19.218;2023-04-25T12:28:15;15.70;77.20
40758;DHT22;26462;47.384;19.218;2023-04-25T12:33:20;15.70;75.90
40758;DHT22;26462;47.384;19.218;2023-04-25T12:35:47;15.80;76.20
40758;DHT22;26462;47.384;19.218;2023-04-25T12:38:25;16.30;74.70
40758;DHT22;26462;47.384;19.218;2023-04-25T12:40:53;16.20;75.10
40758;DHT22;26462;47.384;19.218;2023-04-25T12:43:20;16.20;75.70
40758;DHT22;26462;47.384;19.218;2023-04-25T12:45:53;16.00;75.30
40758;DHT22;26462;47.384;19.218;2023-04-25T12:48:20;15.70;73.80
40758;DHT22;26462;47.384;19.218;2023-04-25T12:50:48;15.50;74.10
40758;DHT22;26462;47.384;19.218;2023-04-25T12:53:20;15.40;72.70
40758;DHT22;26462;47.384;19.218;2023-04-25T12:55:47;15.90;73.30
40758;DHT22;26462;47.384;19.218;2023-04-25T12:58:16;15.70;71.90
40758;DHT22;26462;47.384;19.218;2023-04-25T13:00:45;15.50;72.30
40758;DHT22;26462;47.384;19.218;2023-04-25T13:03:12;15.70;72.50
40758;DHT22;26462;47.384;19.218;2023-04-25T13:05:59;15.40;70.90
40758;DHT22;26462;47.384;19.218;2023-04-25T13:08:26;15.50;71.50
40758;DHT22;26462;47.384;19.218;2023-04-25T13:10:53;15.70;70.90
40758;DHT22;26462;47.384;19.218;2023-04-25T13:13:20;15.90;70.90
40758;DHT22;26462;47.384;19.218;2023-04-25T13:15:47;15.90;70.70
40758;DHT22;26462;47.384;19.218;2023-04-25T13:18:15;15.90;70.70
40758;DHT22;26462;47.384;19.218;2023-04-25T13:20:42;16.20;70.00
40758;DHT22;26462;47.384;19.218;2023-04-25T13:23:09;16.40;67.20
40758;DHT22;26462;47.384;19.218;2023-04-25T13:25:36;16.50;66.30
40758;DHT22;26462;47.384;19.218;2023-04-25T13:28:03;16.70;67.00
40758;DHT22;26462;47.384;19.218;2023-04-25T13:30:31;16.60;65.30
40758;DHT22;26462;47.384;19.218;2023-04-25T13:32:58;16.50;65.20
40758;DHT22;26462;47.384;19.218;2023-04-25T13:35:30;16.50;65.50
40758;DHT22;26462;47.384;19.218;2023-04-25T13:37:57;16.20;64.20
40758;DHT22;26462;47.384;19.218;2023-04-25T13:40:24;16.00;63.90
40758;DHT22;26462;47.384;19.218;2023-04-25T13:42:51;16.40;64.50
40758;DHT22;26462;47.384;19.218;2023-04-25T13:45:19;16.60;64.30
40758;DHT22;26462;47.384;19.218;2023-04-25T13:47:47;16.60;64.80
40758;DHT22;26462;47.384;19.218;2023-04-25T13:50:14;16.90;64.20
40758;DHT22;26462;47.384;19.218;2023-04-25T13:52:42;16.80;62.70
40758;DHT22;26462;47.384;19.218;2023-04-25T13:55:10;17.00;64.10
40758;DHT22;26462;47.384;19.218;2023-04-25T13:57:37;17.20;63.30
40758;DHT22;26462;47.384;19.218;2023-04-25T14:00:07;17.40;63.10
40758;DHT22;26462;47.384;19.218;2023-04-25T14:02:36;17.20;61.60
40758;DHT22;26462;47.384;19.218;2023-04-25T14:05:04;16.70;61.50
40758;DHT22;26462;47.384;19.218;2023-04-25T14:07:34;16.90;62.40
40758;DHT22;26462;47.384;19.218;2023-04-25T14:10:02;16.90;61.40
40758;DHT22;26462;47.384;19.218;2023-04-25T14:12:29;17.20;61.40
40758;DHT22;26462;47.384;19.218;2023-04-25T14:14:56;17.20;60.60
40758;DHT22;26462;47.384;19.218;2023-04-25T14:17:23;17.00;59.70
40758;DHT22;26462;47.384;19.218;2023-04-25T14:19:50;16.90;60.20
40758;DHT22;26462;47.384;19.218;2023-04-25T14:22:17;17.00;59.10
40758;DHT22;26462;47.384;19.218;2023-04-25T14:24:45;17.00;59.00
40758;DHT22;26462;47.384;19.218;2023-04-25T14:27:12;16.80;58.70
40758;DHT22;26462;47.384;19.218;2023-04-25T14:29:39;16.90;59.10
40758;DHT22;26462;47.384;19.218;2023-04-25T14:32:07;16.60;58.60
40758;DHT22;26462;47.384;19.218;2023-04-25T14:34:34;16.50;58.80
40758;DHT22;26462;47.384;19.218;2023-04-25T14:37:01;16.50;58.70
40758;DHT22;26462;47.384;19.218;2023-04-25T14:39:28;16.30;59.00
40758;DHT22;26462;47.384;19.218;2023-04-25T14:41:55;16.40;59.20
40758;DHT22;26462;47.384;19.218;2023-04-25T14:44:22;16.50;59.40
40758;DHT22;26462;47.384;19.218;2023-04-25T14:46:50;16.50;59.00
40758;DHT22;26462;47.384;19.218;2023-04-25T14:49:18;16.30;59.10
40758;DHT22;26462;47.384;19.218;2023-04-25T14:51:45;16.10;59.40
40758;DHT22;26462;47.384;19.218;2023-04-25T14:54:12;16.10;59.50
40758;DHT22;26462;47.384;19.218;2023-04-25T14:56:40;16.00;59.60
40758;DHT22;26462;47.384;19.218;2023-04-25T14:59:07;15.90;60.70
40758;DHT22;26462;47.384;19.218;2023-04-25T15:01:34;15.80;60.70
40758;DHT22;26462;47.384;19.218;2023-04-25T15:04:01;15.90;61.60
40758;DHT22;26462;47.384;19.218;2023-04-25T15:06:30;15.80;61.50
40758;DHT22;26462;47.384;19.218;2023-04-25T15:08:57;15.70;62.20
40758;DHT22;26462;47.384;19.218;2023-04-25T15:11:24;15.80;61.70
40758;DHT22;26462;47.384;19.218;2023-04-25T15:13:51;15.90;62.50
40758;DHT22;26462;47.384;19.218;2023-04-25T15:16:19;16.00;62.10
40758;DHT22;26462;47.384;19.218;2023-04-25T15:18:47;16.10;61.70
40758;DHT22;26462;47.384;19.218;2023-04-25T15:21:14;16.00;60.70
40758;DHT22;26462;47.384;19.218;2023-04-25T15:23:41;16.00;60.50
40758;DHT22;26462;47.384;19.218;2023-04-25T15:26:08;16.20;61.00
40758;DHT22;26462;47.384;19.218;2023-04-25T15:28:36;16.00;60.60
40758;DHT22;26462;47.384;19.218;2023-04-25T15:31:03;16.10;61.70
40758;DHT22;26462;47.384;19.218;2023-04-25T15:33:30;16.20;60.90
40758;DHT22;26462;47.384;19.218;2023-04-25T15:35:57;16.20;61.00
40758;DHT22;26462;47.384;19.218;2023-04-25T15:38:24;16.30;61.40
40758;DHT22;26462;47.384;19.218;2023-04-25T15:40:52;16.30;60.80